createdAt,value
2019-03-31T00:01:13.745Z,94.40
2019-03-31T00:03:48.158Z,94.10
2019-03-31T00:06:22.368Z,94.10
2019-03-31T00:08:55.187Z,94.20
2019-03-31T00:11:27.631Z,94.20
2019-03-31T00:14:00.174Z,94.30
2019-03-31T00:16:32.394Z,94.80
2019-03-31T00:19:05.226Z,95.50
2019-03-31T00:21:41.844Z,95.40
2019-03-31T00:24:13.828Z,95.50
2019-03-31T00:26:46.761Z,95.70
2019-03-31T00:29:23.707Z,95.80
2019-03-31T00:32:01.787Z,96.00
2019-03-31T00:34:39.106Z,96.20
2019-03-31T00:37:11.919Z,96.60
2019-03-31T00:39:46.245Z,96.90
2019-03-31T00:42:19.592Z,97.40
2019-03-31T00:44:54.062Z,97.90
2019-03-31T00:47:28.861Z,98.40
2019-03-31T00:50:02.831Z,99.00
2019-03-31T00:52:36.481Z,99.30
2019-03-31T00:55:10.428Z,99.40
2019-03-31T00:57:44.002Z,99.80
2019-03-31T01:00:38.382Z,99.80
2019-03-31T01:03:13.173Z,99.50
2019-03-31T01:05:48.646Z,99.00
2019-03-31T01:08:23.337Z,98.90
2019-03-31T01:10:58.083Z,99.00
2019-03-31T01:13:32.335Z,98.60
2019-03-31T01:16:05.937Z,98.40
2019-03-31T01:18:41.107Z,98.10
2019-03-31T01:21:16.876Z,97.70
2019-03-31T01:23:50.985Z,97.50
2019-03-31T01:26:24.726Z,97.50
2019-03-31T01:29:04.257Z,97.50
2019-03-31T01:31:49.653Z,97.20
2019-03-31T01:34:15.042Z,97.50
2019-03-31T01:36:49.088Z,97.50
2019-03-31T01:39:25.974Z,97.20
2019-03-31T01:42:00.445Z,97.20
2019-03-31T01:44:33.652Z,97.50
2019-03-31T01:47:08.405Z,97.70
2019-03-31T01:49:41.722Z,98.20
2019-03-31T01:52:15.024Z,98.20
2019-03-31T01:54:49.104Z,98.00
2019-03-31T01:57:22.615Z,98.20
2019-03-31T01:59:55.955Z,98.30
2019-03-31T02:02:38.004Z,98.50
2019-03-31T02:05:11.728Z,98.60
2019-03-31T02:07:44.570Z,98.70
2019-03-31T02:10:17.929Z,99.20
2019-03-31T02:12:52.822Z,99.40
2019-03-31T02:15:25.876Z,99.30
2019-03-31T02:17:59.481Z,99.40
2019-03-31T02:20:33.132Z,99.30
2019-03-31T02:23:06.651Z,99.50
2019-03-31T02:25:40.022Z,99.80
2019-03-31T02:28:14.978Z,99.70
2019-03-31T02:30:48.503Z,99.40
2019-03-31T02:33:21.850Z,99.60
2019-03-31T02:35:55.873Z,99.50
2019-03-31T02:38:30.097Z,99.60
2019-03-31T02:41:09.355Z,99.60
2019-03-31T02:43:43.026Z,99.90
2019-03-31T02:46:17.418Z,99.90
2019-03-31T02:48:53.826Z,99.90
2019-03-31T02:51:29.296Z,99.90
2019-03-31T02:54:02.884Z,99.90
2019-03-31T02:56:38.129Z,99.90
2019-03-31T02:59:17.002Z,99.90
2019-03-31T03:01:52.567Z,99.90
2019-03-31T03:04:26.861Z,99.90
2019-03-31T03:07:01.799Z,99.90
2019-03-31T03:09:36.819Z,99.90
2019-03-31T03:12:12.208Z,99.90
2019-03-31T03:14:47.823Z,99.90
2019-03-31T03:17:21.387Z,99.90
2019-03-31T03:19:55.448Z,99.90
2019-03-31T03:22:29.717Z,99.90
2019-03-31T03:25:03.794Z,99.90
2019-03-31T03:27:37.414Z,99.90
2019-03-31T03:30:13.013Z,99.90
2019-03-31T03:33:11.904Z,99.90
2019-03-31T03:35:22.402Z,99.90
2019-03-31T03:37:56.108Z,99.90
2019-03-31T03:40:30.347Z,99.90
2019-03-31T03:43:05.012Z,99.90
2019-03-31T03:45:39.442Z,99.90
2019-03-31T03:48:13.804Z,99.90
2019-03-31T03:50:47.076Z,99.90
2019-03-31T03:53:21.002Z,99.90
2019-03-31T03:55:54.867Z,99.90
2019-03-31T03:58:28.364Z,99.90
2019-03-31T04:01:02.214Z,99.90
2019-03-31T04:03:36.011Z,99.90
2019-03-31T04:06:10.021Z,99.90
2019-03-31T04:08:43.486Z,99.90
2019-03-31T04:11:23.591Z,99.90
2019-03-31T04:13:59.661Z,99.90
2019-03-31T04:16:32.643Z,99.90
2019-03-31T04:19:06.440Z,99.90
2019-03-31T04:21:39.635Z,99.90
2019-03-31T04:24:14.322Z,99.90
2019-03-31T04:26:47.509Z,99.90
2019-03-31T04:29:21.658Z,99.90
2019-03-31T04:31:55.299Z,99.90
2019-03-31T04:34:28.931Z,99.90
2019-03-31T04:37:00.974Z,99.90
2019-03-31T04:39:34.878Z,99.90
2019-03-31T04:42:09.047Z,99.90
2019-03-31T04:44:43.649Z,99.90
2019-03-31T04:47:19.271Z,99.90
2019-03-31T04:49:52.251Z,99.90
2019-03-31T04:52:25.535Z,99.90
2019-03-31T04:54:59.741Z,99.90
2019-03-31T04:57:34.154Z,99.90
2019-03-31T05:00:09.757Z,99.90
2019-03-31T05:02:43.520Z,99.90
2019-03-31T05:05:17.630Z,99.90
2019-03-31T05:07:53.395Z,99.90
2019-03-31T05:10:27.355Z,99.90
2019-03-31T05:13:00.995Z,99.90
2019-03-31T05:15:34.978Z,99.90
2019-03-31T05:18:09.283Z,99.90
2019-03-31T05:20:43.314Z,99.90
2019-03-31T05:23:18.129Z,99.80
2019-03-31T05:25:52.947Z,99.40
2019-03-31T05:28:29.780Z,99.20
2019-03-31T05:31:03.911Z,98.70
2019-03-31T05:33:38.020Z,98.40
2019-03-31T05:36:11.340Z,98.30
2019-03-31T05:38:44.837Z,98.20
2019-03-31T05:41:18.500Z,98.00
2019-03-31T05:44:04.842Z,98.30
2019-03-31T05:46:28.121Z,97.60
2019-03-31T05:49:02.945Z,97.40
2019-03-31T05:51:36.608Z,97.30
2019-03-31T05:54:08.870Z,97.10
2019-03-31T05:56:41.297Z,96.50
2019-03-31T05:59:14.248Z,96.30
2019-03-31T06:01:48.680Z,95.70
2019-03-31T06:04:32.579Z,95.40
2019-03-31T06:06:54.949Z,95.30
2019-03-31T06:09:27.058Z,94.80
2019-03-31T06:11:59.376Z,94.30
2019-03-31T06:14:31.674Z,94.10
2019-03-31T06:17:03.724Z,93.80
2019-03-31T06:19:36.349Z,93.30
2019-03-31T06:22:11.131Z,92.90
2019-03-31T06:24:43.553Z,92.60
2019-03-31T06:27:15.988Z,92.10
2019-03-31T06:29:48.918Z,91.80
2019-03-31T06:32:21.401Z,91.60
2019-03-31T06:34:54.789Z,91.10
2019-03-31T06:37:31.101Z,90.40
2019-03-31T06:40:06.650Z,90.40
2019-03-31T06:42:42.768Z,90.20
2019-03-31T06:45:16.220Z,89.20
2019-03-31T06:47:48.864Z,89.40
2019-03-31T06:50:28.711Z,88.90
2019-03-31T06:53:04.027Z,89.10
2019-03-31T06:55:39.093Z,89.30
2019-03-31T06:58:12.492Z,89.70
2019-03-31T07:00:45.627Z,90.20
2019-03-31T07:03:18.398Z,90.40
2019-03-31T07:05:51.638Z,90.70
2019-03-31T07:08:25.259Z,91.00
2019-03-31T07:10:58.943Z,91.50
2019-03-31T07:13:33.064Z,91.80
2019-03-31T07:16:04.944Z,92.50
2019-03-31T07:18:37.299Z,93.30
2019-03-31T07:21:10.527Z,93.20
2019-03-31T07:23:43.395Z,93.30
2019-03-31T07:26:15.722Z,93.50
2019-03-31T07:28:47.790Z,94.10
2019-03-31T07:31:21.318Z,94.30
2019-03-31T07:33:53.433Z,94.20
2019-03-31T07:36:26.380Z,94.50
2019-03-31T07:39:00.436Z,94.40
2019-03-31T07:41:36.624Z,94.60
2019-03-31T07:44:09.057Z,94.70
2019-03-31T07:46:41.534Z,94.70
2019-03-31T07:49:16.156Z,95.20
2019-03-31T07:51:49.847Z,95.20
2019-03-31T07:54:25.665Z,95.00
2019-03-31T07:56:58.067Z,95.10
2019-03-31T07:59:30.660Z,95.60
2019-03-31T08:02:04.654Z,95.40
2019-03-31T08:04:39.742Z,95.20
2019-03-31T08:07:12.077Z,95.30
2019-03-31T08:09:44.947Z,95.70
2019-03-31T08:12:20.818Z,96.40
2019-03-31T08:14:52.885Z,96.60
2019-03-31T08:17:27.014Z,96.40
2019-03-31T08:20:01.709Z,96.60
2019-03-31T08:22:37.280Z,96.60
2019-03-31T08:25:11.545Z,96.40
2019-03-31T08:27:46.483Z,96.20
2019-03-31T08:30:58.974Z,96.40
2019-03-31T08:33:33.273Z,96.40
2019-03-31T08:36:05.553Z,96.40
2019-03-31T08:38:38.038Z,96.30
2019-03-31T08:41:12.002Z,95.70
2019-03-31T08:43:44.656Z,95.90
2019-03-31T08:46:19.692Z,95.80
2019-03-31T08:48:55.221Z,96.00
2019-03-31T08:55:44.752Z,95.70
2019-03-31T08:58:19.986Z,95.40
2019-03-31T09:00:56.874Z,95.80
2019-03-31T09:03:29.998Z,95.70
2019-03-31T09:06:03.962Z,95.50
2019-03-31T09:08:37.428Z,95.20
2019-03-31T09:11:10.102Z,94.70
2019-03-31T09:13:45.085Z,94.30
2019-03-31T09:16:18.985Z,94.20
2019-03-31T09:18:51.957Z,94.00
2019-03-31T09:21:24.975Z,93.50
2019-03-31T09:23:57.510Z,93.60
2019-03-31T09:26:30.446Z,93.30
2019-03-31T09:29:05.248Z,93.60
2019-03-31T09:31:38.154Z,93.30
2019-03-31T09:34:10.883Z,93.10
2019-03-31T09:36:44.671Z,92.80
2019-03-31T09:39:24.991Z,92.40
2019-03-31T09:41:59.243Z,92.00
2019-03-31T09:44:31.964Z,91.70
2019-03-31T09:47:05.846Z,91.40
2019-03-31T09:49:37.506Z,90.50
2019-03-31T09:52:12.893Z,90.70
2019-03-31T09:54:45.948Z,90.70
2019-03-31T09:57:19.147Z,90.40
2019-03-31T09:59:51.360Z,90.10
2019-03-31T10:02:28.147Z,90.10
2019-03-31T10:05:01.161Z,89.80
2019-03-31T10:07:36.649Z,88.90
2019-03-31T10:10:10.749Z,88.30
2019-03-31T10:12:42.738Z,87.60
2019-03-31T10:15:14.918Z,87.60
2019-03-31T10:17:48.307Z,87.30
2019-03-31T10:20:22.597Z,86.70
2019-03-31T10:22:55.899Z,85.70
2019-03-31T10:25:30.342Z,85.50
2019-03-31T10:28:03.294Z,85.50
2019-03-31T10:30:40.205Z,85.60
2019-03-31T10:33:13.120Z,84.90
2019-03-31T10:35:46.223Z,84.90
2019-03-31T10:38:19.375Z,84.60
2019-03-31T10:40:52.047Z,84.40
2019-03-31T10:43:25.290Z,84.10
2019-03-31T10:45:58.790Z,84.20
2019-03-31T10:48:34.907Z,83.50
2019-03-31T10:51:12.610Z,83.50
2019-03-31T10:53:45.481Z,83.80
2019-03-31T10:56:18.185Z,83.30
2019-03-31T10:58:53.959Z,82.20
2019-03-31T11:01:29.287Z,82.10
2019-03-31T11:04:05.128Z,82.40
2019-03-31T11:06:41.509Z,81.70
2019-03-31T11:09:15.998Z,79.70
2019-03-31T11:11:52.270Z,80.00
2019-03-31T11:14:28.443Z,80.40
2019-03-31T11:17:06.241Z,79.30
2019-03-31T11:19:41.998Z,78.50
2019-03-31T11:22:52.972Z,77.80
2019-03-31T11:25:29.182Z,76.40
2019-03-31T11:28:02.688Z,72.80
2019-03-31T11:30:37.481Z,72.20
2019-03-31T11:33:12.499Z,71.20
2019-03-31T11:35:45.469Z,70.10
2019-03-31T11:38:20.610Z,71.00
2019-03-31T11:40:54.946Z,72.10
2019-03-31T11:43:27.322Z,72.10
2019-03-31T11:46:02.336Z,71.50
2019-03-31T11:48:35.853Z,71.00
2019-03-31T11:51:09.374Z,71.30
2019-03-31T11:53:47.268Z,70.80
2019-03-31T11:56:20.160Z,69.90
2019-03-31T11:58:52.615Z,69.90
2019-03-31T12:01:26.776Z,69.70
2019-03-31T12:04:00.295Z,70.70
2019-03-31T12:06:34.015Z,69.90
2019-03-31T12:09:08.269Z,69.50
2019-03-31T12:11:45.539Z,68.70
2019-03-31T12:14:17.314Z,67.90
2019-03-31T12:16:51.918Z,68.20
2019-03-31T12:19:24.833Z,68.70
2019-03-31T12:21:58.170Z,68.20
2019-03-31T12:24:35.892Z,67.80
2019-03-31T12:27:10.938Z,67.10
2019-03-31T12:29:48.815Z,67.70
2019-03-31T12:32:22.478Z,67.20
2019-03-31T12:34:55.583Z,67.80
2019-03-31T12:37:41.625Z,68.20
2019-03-31T12:40:07.342Z,67.80
2019-03-31T12:42:44.151Z,67.00
2019-03-31T12:45:18.366Z,66.60
2019-03-31T12:47:51.683Z,66.00
2019-03-31T12:50:27.554Z,66.30
2019-03-31T12:53:00.372Z,66.60
2019-03-31T12:55:33.544Z,67.00
2019-03-31T12:58:08.055Z,66.30
2019-03-31T13:00:41.218Z,65.70
2019-03-31T13:03:17.356Z,65.70
2019-03-31T13:05:51.719Z,65.70
2019-03-31T13:08:24.382Z,65.50
2019-03-31T13:10:57.299Z,65.30
2019-03-31T13:13:31.732Z,64.60
2019-03-31T13:16:09.046Z,64.80
2019-03-31T13:18:43.281Z,64.30
2019-03-31T13:21:17.297Z,63.80
2019-03-31T13:23:50.573Z,63.10
2019-03-31T13:26:23.266Z,62.40
2019-03-31T13:28:56.062Z,61.30
2019-03-31T13:31:28.902Z,62.00
2019-03-31T13:34:02.605Z,61.60
2019-03-31T13:36:35.627Z,61.90
2019-03-31T13:39:09.969Z,62.40
2019-03-31T13:41:42.870Z,62.90
2019-03-31T13:44:15.890Z,63.10
2019-03-31T13:46:54.614Z,62.60
2019-03-31T13:49:30.924Z,62.40
2019-03-31T13:52:06.393Z,62.20
2019-03-31T13:54:39.572Z,63.00
2019-03-31T13:57:13.649Z,63.70
2019-03-31T13:59:47.316Z,64.10
2019-03-31T14:02:19.826Z,63.70
2019-03-31T14:04:52.570Z,63.30
2019-03-31T14:07:26.221Z,62.00
2019-03-31T14:09:59.503Z,61.50
2019-03-31T14:12:32.143Z,62.00
2019-03-31T14:15:18.572Z,61.80
2019-03-31T14:17:44.062Z,61.90
2019-03-31T14:20:18.828Z,62.90
2019-03-31T14:22:52.919Z,62.40
2019-03-31T14:25:26.888Z,62.80
2019-03-31T14:28:06.950Z,62.10
2019-03-31T14:30:40.373Z,62.10
2019-03-31T14:33:13.751Z,62.60
2019-03-31T14:35:47.338Z,62.20
2019-03-31T14:38:21.594Z,61.90
2019-03-31T14:40:55.730Z,61.80
2019-03-31T14:43:29.518Z,61.60
2019-03-31T14:46:04.841Z,60.80
2019-03-31T14:48:42.208Z,61.00
2019-03-31T14:51:16.672Z,61.00
2019-03-31T14:53:51.260Z,61.50
2019-03-31T14:56:24.739Z,62.10
2019-03-31T14:59:07.411Z,62.10
2019-03-31T15:01:41.713Z,61.30
2019-03-31T15:04:17.529Z,61.20
2019-03-31T15:06:53.279Z,61.80
2019-03-31T15:09:28.205Z,61.90
2019-03-31T15:12:02.496Z,61.60
2019-03-31T15:15:37.616Z,62.20
2019-03-31T15:19:03.429Z,62.30
2019-03-31T15:26:14.316Z,61.80
2019-03-31T15:30:23.329Z,62.20
2019-03-31T15:33:01.808Z,62.80
2019-03-31T15:35:57.280Z,63.00
2019-03-31T15:38:31.050Z,62.90
2019-03-31T15:41:20.987Z,63.70
2019-03-31T15:43:47.047Z,63.50
2019-03-31T15:46:24.619Z,63.40
2019-03-31T15:49:05.856Z,63.40
2019-03-31T15:51:59.977Z,64.00
2019-03-31T15:54:34.575Z,64.40
2019-03-31T15:57:09.286Z,64.40
2019-03-31T15:59:55.598Z,64.60
2019-03-31T16:02:30.209Z,64.20
2019-03-31T16:05:06.728Z,65.10
2019-03-31T16:07:51.934Z,65.10
2019-03-31T16:10:34.810Z,65.60
2019-03-31T16:13:11.390Z,65.50
2019-03-31T16:15:45.471Z,65.70
2019-03-31T16:18:25.994Z,65.90
2019-03-31T16:21:00.171Z,65.90
2019-03-31T16:23:36.332Z,65.70
2019-03-31T16:26:10.378Z,65.70
2019-03-31T16:28:44.469Z,65.70
2019-03-31T16:31:24.482Z,65.60
2019-03-31T16:34:02.957Z,65.90
2019-03-31T16:36:45.552Z,66.10
2019-03-31T16:39:37.606Z,65.50
2019-03-31T16:42:08.082Z,65.60
2019-03-31T16:44:58.748Z,66.20
2019-03-31T16:47:38.635Z,66.10
2019-03-31T16:50:15.361Z,66.40
2019-03-31T16:52:57.508Z,67.10
2019-03-31T16:55:39.654Z,67.90
2019-03-31T16:58:14.289Z,68.40
2019-03-31T17:00:55.492Z,69.90
2019-03-31T17:03:42.004Z,70.80
2019-03-31T17:06:34.702Z,71.60
2019-03-31T17:09:32.205Z,72.10
2019-03-31T17:12:20.365Z,72.80
2019-03-31T17:14:56.419Z,73.50
2019-03-31T17:17:33.950Z,73.50
2019-03-31T17:20:13.951Z,72.90
2019-03-31T17:22:49.141Z,72.10
2019-03-31T17:25:24.591Z,71.90
2019-03-31T17:28:10.246Z,71.90
2019-03-31T17:30:57.652Z,72.10
2019-03-31T17:33:37.346Z,73.00
2019-03-31T17:36:13.753Z,73.50
2019-03-31T17:38:50.707Z,74.20
2019-03-31T17:41:29.845Z,74.90
2019-03-31T17:44:08.742Z,75.10
2019-03-31T17:46:56.647Z,75.90
2019-03-31T17:50:01.587Z,76.30
2019-03-31T17:52:31.797Z,76.70
2019-03-31T17:55:18.476Z,77.40
2019-03-31T17:58:01.002Z,77.70
2019-03-31T18:00:50.942Z,78.10
2019-03-31T18:03:29.173Z,78.40
2019-03-31T18:06:10.568Z,78.80
2019-03-31T18:08:52.635Z,79.00
2019-03-31T18:11:33.656Z,78.60
2019-03-31T18:14:16.237Z,79.00
2019-03-31T18:16:55.918Z,79.60
2019-03-31T18:19:34.344Z,79.70
2019-03-31T18:22:17.736Z,79.00
2019-03-31T18:24:54.970Z,78.80
2019-03-31T18:27:35.344Z,78.90
2019-03-31T18:30:13.116Z,78.90
2019-03-31T18:32:52.158Z,78.80
2019-03-31T18:35:26.344Z,78.90
2019-03-31T18:38:03.434Z,79.00
2019-03-31T18:40:39.510Z,79.50
2019-03-31T18:43:13.871Z,79.70
2019-03-31T18:45:48.002Z,79.60
2019-03-31T18:48:24.108Z,79.60
2019-03-31T18:51:00.447Z,79.60
2019-03-31T18:53:45.731Z,79.50
2019-03-31T18:56:50.268Z,79.50
2019-03-31T19:00:01.901Z,79.60
2019-03-31T19:02:47.680Z,79.40
2019-03-31T19:05:42.502Z,79.20
2019-03-31T19:08:33.891Z,78.90
2019-03-31T19:11:27.437Z,79.30
2019-03-31T19:14:16.987Z,79.20
2019-03-31T19:17:20.248Z,78.70
2019-03-31T19:20:09.200Z,78.70
2019-03-31T19:22:57.477Z,78.50
2019-03-31T19:26:11.901Z,78.80
2019-03-31T19:29:02.916Z,78.80
2019-03-31T19:32:08.838Z,78.90
2019-03-31T19:35:03.264Z,78.70
2019-03-31T19:38:06.856Z,78.50
2019-03-31T19:41:15.962Z,78.20
2019-03-31T19:44:15.731Z,78.10
2019-03-31T19:47:24.620Z,77.60
2019-03-31T19:50:11.890Z,77.40
2019-03-31T19:53:02.003Z,77.40
2019-03-31T19:56:07.681Z,77.60
2019-03-31T19:59:02.204Z,77.70
2019-03-31T20:01:57.177Z,77.40
2019-03-31T20:04:42.747Z,76.80
2019-03-31T20:07:47.538Z,76.40
2019-03-31T20:10:41.498Z,76.30
2019-03-31T20:13:46.121Z,76.20
2019-03-31T20:16:38.913Z,76.40
2019-03-31T20:19:47.302Z,76.10
2019-03-31T20:22:47.700Z,76.30
2019-03-31T20:25:41.913Z,76.40
2019-03-31T20:28:39.227Z,76.70
2019-03-31T20:31:39.913Z,76.80
2019-03-31T20:34:38.598Z,77.00
2019-03-31T20:37:29.473Z,77.10
2019-03-31T20:40:31.501Z,77.40
2019-03-31T20:43:36.702Z,77.50
2019-03-31T20:46:12.661Z,77.40
2019-03-31T20:48:47.475Z,77.60
2019-03-31T20:51:24.039Z,77.80
2019-03-31T20:53:59.239Z,78.10
2019-03-31T20:56:34.139Z,78.50
2019-03-31T20:59:08.159Z,78.60
2019-03-31T21:01:42.385Z,78.90
2019-03-31T21:04:19.743Z,79.30
2019-03-31T21:06:56.436Z,79.30
2019-03-31T21:09:44.825Z,79.40
2019-03-31T21:12:14.484Z,79.30
2019-03-31T21:14:50.529Z,79.70
2019-03-31T21:17:26.235Z,79.90
2019-03-31T21:20:05.889Z,80.00
2019-03-31T21:22:46.759Z,79.80
2019-03-31T21:25:21.543Z,80.00
2019-03-31T21:27:56.615Z,80.30
2019-03-31T21:30:31.886Z,80.60
2019-03-31T21:33:07.155Z,80.90
2019-03-31T21:35:41.472Z,81.00
2019-03-31T21:38:15.893Z,81.30
2019-03-31T21:40:50.249Z,81.80
2019-03-31T21:43:25.490Z,81.90
2019-03-31T21:46:00.629Z,82.10
2019-03-31T21:48:35.634Z,82.20
2019-03-31T21:51:10.305Z,82.30
2019-03-31T21:53:44.368Z,82.20
2019-03-31T21:56:21.456Z,81.90
2019-03-31T21:58:55.742Z,81.50
2019-03-31T22:01:31.920Z,81.50
2019-03-31T22:04:07.784Z,81.50
2019-03-31T22:06:42.545Z,81.80
2019-03-31T22:09:17.860Z,81.90
2019-03-31T22:11:52.271Z,81.80
2019-03-31T22:14:26.284Z,82.00
2019-03-31T22:17:00.950Z,81.80
2019-03-31T22:19:35.362Z,81.70
2019-03-31T22:22:09.201Z,81.50
2019-03-31T22:24:42.705Z,81.30
2019-03-31T22:27:16.292Z,81.70
2019-03-31T22:29:50.621Z,81.80
2019-03-31T22:32:25.705Z,81.90
2019-03-31T22:34:59.695Z,81.90
2019-03-31T22:37:33.898Z,82.00
2019-03-31T22:40:09.434Z,81.90
2019-03-31T22:42:43.728Z,82.00
2019-03-31T22:45:16.950Z,82.40
2019-03-31T22:47:49.971Z,82.30
2019-03-31T22:50:24.362Z,82.20
2019-03-31T22:52:57.120Z,82.20
2019-03-31T22:55:30.079Z,82.00
2019-03-31T22:58:03.257Z,82.40
2019-03-31T23:00:36.740Z,82.60
2019-03-31T23:03:11.930Z,82.40
2019-03-31T23:05:45.713Z,81.90
2019-03-31T23:08:18.911Z,82.00
2019-03-31T23:10:52.455Z,82.00
2019-03-31T23:13:26.015Z,82.20
2019-03-31T23:15:59.330Z,82.30
2019-03-31T23:18:32.893Z,82.30
2019-03-31T23:21:06.355Z,82.30
2019-03-31T23:23:39.695Z,82.60
2019-03-31T23:26:13.273Z,82.90
2019-03-31T23:28:47.458Z,83.00
2019-03-31T23:31:20.199Z,83.10
2019-03-31T23:33:53.798Z,83.20
2019-03-31T23:36:27.544Z,83.20
2019-03-31T23:39:01.068Z,83.40
2019-03-31T23:41:39.352Z,83.80
2019-03-31T23:44:14.689Z,83.80
2019-03-31T23:46:47.700Z,83.80
2019-03-31T23:49:20.661Z,84.10
2019-03-31T23:51:53.489Z,84.20
2019-03-31T23:54:26.665Z,84.30
2019-03-31T23:57:00.448Z,84.20
2019-03-31T23:59:34.021Z,84.30
